createdAt,value
2022-12-11T00:01:24.276Z,99106.42
2022-12-11T00:05:26.235Z,99102.92
2022-12-11T00:09:28.649Z,99096.98
2022-12-11T00:13:30.577Z,99093.63
2022-12-11T00:17:32.617Z,99095.61
2022-12-11T00:21:34.898Z,99098.79
2022-12-11T00:25:45.855Z,99097.61
2022-12-11T00:29:47.786Z,99093.71
2022-12-11T00:33:50.776Z,99098.04
2022-12-11T00:37:53.462Z,99101.84
2022-12-11T00:41:55.444Z,99099.77
2022-12-11T00:45:57.799Z,99093.80
2022-12-11T00:49:59.843Z,99088.15
2022-12-11T00:54:03.207Z,99088.41
2022-12-11T00:58:05.191Z,99090.70
2022-12-11T01:02:07.133Z,99086.22
2022-12-11T01:06:14.650Z,99083.80
2022-12-11T01:10:26.301Z,99085.01
2022-12-11T01:14:28.358Z,99079.35
2022-12-11T01:18:30.297Z,99071.07
2022-12-11T01:22:32.287Z,99071.39
2022-12-11T01:26:34.298Z,99062.04
2022-12-11T01:30:36.694Z,99046.79
2022-12-11T01:34:38.810Z,99034.94
2022-12-11T01:38:41.254Z,99031.05
2022-12-11T01:42:43.631Z,99018.08
2022-12-11T01:46:45.569Z,99016.83
2022-12-11T01:50:54.102Z,99017.02
2022-12-11T01:54:56.130Z,99013.96
2022-12-11T01:59:06.008Z,99004.30
2022-12-11T02:03:08.521Z,98998.16
2022-12-11T02:07:10.432Z,98997.29
2022-12-11T02:11:25.336Z,98992.14
2022-12-11T02:15:30.226Z,98993.30
2022-12-11T02:19:48.967Z,98988.86
2022-12-11T02:23:56.858Z,98991.77
2022-12-11T02:28:26.621Z,98990.20
2022-12-11T02:32:35.950Z,98988.16
2022-12-11T02:36:43.127Z,98985.55
2022-12-11T02:40:49.242Z,98988.59
2022-12-11T02:44:54.036Z,98983.66
2022-12-11T02:48:57.079Z,98977.46
2022-12-11T02:53:01.977Z,98982.80
2022-12-11T02:57:11.574Z,98974.80
2022-12-11T03:01:13.758Z,98973.23
2022-12-11T03:05:15.853Z,98972.36
2022-12-11T03:09:17.792Z,98970.73
2022-12-11T03:13:22.353Z,98973.46
2022-12-11T03:17:33.728Z,98968.80
2022-12-11T03:21:54.213Z,98971.05
2022-12-11T03:26:05.938Z,98963.96
2022-12-11T03:30:12.431Z,98959.58
2022-12-11T03:34:28.550Z,98964.45
2022-12-11T03:38:56.771Z,98960.98
2022-12-11T03:43:00.311Z,98958.61
2022-12-11T03:47:06.569Z,98957.30
2022-12-11T03:51:09.219Z,98954.42
2022-12-11T03:55:14.756Z,98951.98
2022-12-11T03:59:16.771Z,98948.41
2022-12-11T04:03:19.184Z,98943.30
2022-12-11T04:07:21.339Z,98944.20
2022-12-11T04:11:35.430Z,98943.85
2022-12-11T04:15:39.415Z,98935.98
2022-12-11T04:20:00.069Z,98935.21
2022-12-11T04:24:17.288Z,98931.64
2022-12-11T04:28:19.273Z,98927.84
2022-12-11T04:32:21.197Z,98933.33
2022-12-11T04:36:23.253Z,98930.17
2022-12-11T04:40:25.234Z,98928.34
2022-12-11T04:44:27.122Z,98922.57
2022-12-11T04:48:29.495Z,98918.91
2022-12-11T04:52:31.524Z,98910.90
2022-12-11T04:56:33.507Z,98899.39
2022-12-11T05:00:35.442Z,98889.86
2022-12-11T05:04:37.387Z,98883.34
2022-12-11T05:08:41.461Z,98882.65
2022-12-11T05:12:43.383Z,98868.47
2022-12-11T05:16:45.490Z,98855.92
2022-12-11T05:20:58.983Z,98852.39
2022-12-11T05:25:00.974Z,98849.06
2022-12-11T05:29:03.011Z,98843.45
2022-12-11T05:33:04.904Z,98834.65
2022-12-11T05:37:07.278Z,98828.48
2022-12-11T05:41:13.537Z,98830.20
2022-12-11T05:45:15.459Z,98825.40
2022-12-11T05:49:19.848Z,98824.05
2022-12-11T05:53:22.222Z,98821.60
2022-12-11T05:57:24.153Z,98820.08
2022-12-11T06:01:29.373Z,98822.48
2022-12-11T06:05:31.269Z,98828.93
2022-12-11T06:09:33.253Z,98832.39
2022-12-11T06:13:35.579Z,98835.61
2022-12-11T06:17:37.513Z,98843.23
2022-12-11T06:21:39.443Z,98841.83
2022-12-11T06:25:41.388Z,98844.51
2022-12-11T06:29:43.351Z,98846.27
2022-12-11T06:33:45.483Z,98840.83
2022-12-11T06:37:47.339Z,98837.48
2022-12-11T06:41:49.286Z,98832.29
2022-12-11T06:45:51.598Z,98827.39
2022-12-11T06:49:54.039Z,98827.84
2022-12-11T06:53:56.944Z,98824.05
2022-12-11T06:57:58.863Z,98813.05
2022-12-11T07:02:00.822Z,98809.66
2022-12-11T07:06:03.088Z,98806.27
2022-12-11T07:10:08.297Z,98805.34
2022-12-11T07:14:10.792Z,98801.64
2022-12-11T07:18:12.735Z,98795.44
2022-12-11T07:22:14.814Z,98789.18
2022-12-11T07:26:19.871Z,98784.34
2022-12-11T07:30:21.915Z,98790.48
2022-12-11T07:34:23.932Z,98784.01
2022-12-11T07:38:26.017Z,98781.77
2022-12-11T07:42:28.357Z,98779.44
2022-12-11T07:46:33.122Z,98783.20
2022-12-11T07:50:39.575Z,98778.94
2022-12-11T07:54:42.283Z,98771.91
2022-12-11T07:58:44.745Z,98765.71
2022-12-11T08:02:46.803Z,98766.05
2022-12-11T08:06:49.438Z,98759.48
2022-12-11T08:10:51.814Z,98751.45
2022-12-11T08:14:53.898Z,98748.98
2022-12-11T08:18:56.005Z,98742.82
2022-12-11T08:22:59.383Z,98740.20
2022-12-11T08:27:01.629Z,98732.48
2022-12-11T08:31:06.285Z,98726.84
2022-12-11T08:35:09.306Z,98727.59
2022-12-11T08:39:11.601Z,98732.67
2022-12-11T08:43:13.785Z,98728.47
2022-12-11T08:47:16.959Z,98730.54
2022-12-11T08:51:22.926Z,98727.80
2022-12-11T08:55:25.032Z,98725.72
2022-12-11T08:59:27.084Z,98721.52
2022-12-11T09:03:29.110Z,98717.97
2022-12-11T09:07:31.146Z,98716.09
2022-12-11T09:11:35.826Z,98700.23
2022-12-11T09:15:40.784Z,98695.70
2022-12-11T09:19:42.787Z,98686.35
2022-12-11T09:23:45.363Z,98689.52
2022-12-11T09:27:47.270Z,98685.08
2022-12-11T09:31:49.270Z,98674.61
2022-12-11T09:36:02.343Z,98661.53
2022-12-11T09:40:07.802Z,98655.96
2022-12-11T09:44:30.032Z,98654.73
2022-12-11T09:48:34.782Z,98648.58
2022-12-11T09:52:58.848Z,98638.89
2022-12-11T09:57:24.399Z,98629.65
2022-12-11T10:01:45.219Z,98623.94
2022-12-11T10:05:51.666Z,98621.61
2022-12-11T10:10:20.835Z,98620.20
2022-12-11T10:14:43.963Z,98615.60
2022-12-11T10:18:48.239Z,98599.41
2022-12-11T10:22:53.567Z,98602.40
2022-12-11T10:26:59.355Z,98603.26
2022-12-11T10:31:16.702Z,98596.91
2022-12-11T10:35:24.530Z,98598.02
2022-12-11T10:39:27.716Z,98597.73
2022-12-11T10:43:39.274Z,98590.64
2022-12-11T10:47:41.299Z,98582.47
2022-12-11T10:51:43.879Z,98571.87
2022-12-11T10:55:48.082Z,98568.16
2022-12-11T10:59:50.302Z,98557.60
2022-12-11T11:04:31.227Z,98560.14
2022-12-11T11:08:40.297Z,98552.94
2022-12-11T11:12:49.944Z,98550.34
2022-12-11T11:16:55.846Z,98549.56
2022-12-11T11:20:58.303Z,98545.87
2022-12-11T11:25:00.940Z,98543.30
2022-12-11T11:29:03.505Z,98534.89
2022-12-11T11:33:15.354Z,98526.88
2022-12-11T11:37:31.365Z,98523.77
2022-12-11T11:41:45.913Z,98519.83
2022-12-11T11:45:59.587Z,98521.21
2022-12-11T11:50:32.429Z,98515.64
2022-12-11T11:54:39.458Z,98513.98
2022-12-11T11:58:43.560Z,98506.61
2022-12-11T12:02:48.542Z,98515.66
2022-12-11T12:06:56.691Z,98512.73
2022-12-11T12:11:30.393Z,98514.00
2022-12-11T12:15:54.449Z,98511.70
2022-12-11T12:20:10.726Z,98511.08
2022-12-11T12:25:11.292Z,98511.67
2022-12-11T12:29:25.558Z,98519.83
2022-12-11T12:33:53.496Z,98520.42
2022-12-11T12:38:21.304Z,98521.64
2022-12-11T12:42:28.990Z,98522.16
2022-12-11T12:46:33.819Z,98520.24
2022-12-11T12:50:43.373Z,98515.27
2022-12-11T12:55:08.339Z,98510.19
2022-12-11T12:59:20.530Z,98515.41
2022-12-11T13:03:29.897Z,98514.95
2022-12-11T13:07:32.377Z,98520.50
2022-12-11T13:11:35.878Z,98517.73
2022-12-11T13:15:42.506Z,98518.32
2022-12-11T13:19:44.555Z,98519.64
2022-12-11T13:23:46.778Z,98523.79
2022-12-11T13:27:50.243Z,98524.61
2022-12-11T13:31:58.659Z,98523.93
2022-12-11T13:36:15.103Z,98522.89
2022-12-11T13:40:24.098Z,98515.61
2022-12-11T13:44:30.181Z,98509.70
2022-12-11T13:48:34.511Z,98505.33
2022-12-11T13:52:36.403Z,98493.58
2022-12-11T13:56:38.322Z,98488.15
2022-12-11T14:00:40.368Z,98492.83
2022-12-11T14:04:42.640Z,98493.30
2022-12-11T14:08:47.485Z,98496.38
2022-12-11T14:12:55.407Z,98493.95
2022-12-11T14:16:58.021Z,98491.70
2022-12-11T14:21:04.157Z,98485.80
2022-12-11T14:25:26.722Z,98472.42
2022-12-11T14:29:30.320Z,98466.41
2022-12-11T14:33:36.734Z,98465.64
2022-12-11T14:37:39.439Z,98467.92
2022-12-11T14:41:48.873Z,98468.00
2022-12-11T14:45:56.633Z,98469.95
2022-12-11T14:50:11.616Z,98477.38
2022-12-11T14:54:47.686Z,98487.92
2022-12-11T14:58:55.332Z,98502.27
2022-12-11T15:02:59.916Z,98508.31
2022-12-11T15:07:01.902Z,98509.12
2022-12-11T15:11:11.036Z,98506.86
2022-12-11T15:15:16.521Z,98505.23
2022-12-11T15:19:32.604Z,98502.31
2022-12-11T15:23:56.307Z,98500.42
2022-12-11T15:28:00.956Z,98495.20
2022-12-11T15:32:09.055Z,98488.02
2022-12-11T15:36:29.949Z,98483.69
2022-12-11T15:40:32.571Z,98487.41
2022-12-11T15:44:34.633Z,98492.06
2022-12-11T15:48:36.668Z,98497.43
2022-12-11T15:52:38.683Z,98493.89
2022-12-11T15:56:41.018Z,98489.00
2022-12-11T16:00:42.945Z,98489.56
2022-12-11T16:04:45.022Z,98500.56
2022-12-11T16:08:46.964Z,98507.19
2022-12-11T16:12:48.922Z,98511.05
2022-12-11T16:16:51.017Z,98519.25
2022-12-11T16:20:52.987Z,98526.21
2022-12-11T16:24:55.383Z,98528.41
2022-12-11T16:28:57.555Z,98524.98
2022-12-11T16:32:59.547Z,98521.78
2022-12-11T16:37:01.763Z,98524.87
2022-12-11T16:41:04.349Z,98523.07
2022-12-11T16:45:13.744Z,98522.91
2022-12-11T16:49:16.130Z,98528.94
2022-12-11T16:53:18.694Z,98526.21
2022-12-11T16:57:21.180Z,98522.09
2022-12-11T17:01:23.237Z,98523.39
2022-12-11T17:05:25.535Z,98524.77
2022-12-11T17:09:27.615Z,98523.22
2022-12-11T17:13:34.414Z,98517.52
2022-12-11T17:17:38.023Z,98512.80
2022-12-11T17:21:40.222Z,98517.00
2022-12-11T17:25:44.302Z,98524.08
2022-12-11T17:29:49.010Z,98522.41
2022-12-11T17:33:53.518Z,98532.82
2022-12-11T17:37:56.557Z,98535.64
2022-12-11T17:41:58.679Z,98532.77
2022-12-11T17:46:00.711Z,98534.92
2022-12-11T17:50:03.522Z,98534.70
2022-12-11T17:54:05.707Z,98535.03
2022-12-11T17:58:09.322Z,98537.06
2022-12-11T18:02:11.408Z,98530.84
2022-12-11T18:06:15.230Z,98523.33
2022-12-11T18:10:17.630Z,98518.59
2022-12-11T18:14:19.795Z,98515.08
2022-12-11T18:18:21.948Z,98512.07
2022-12-11T18:22:24.963Z,98504.24
2022-12-11T18:26:28.452Z,98499.78
2022-12-11T18:30:30.685Z,98490.76
2022-12-11T18:34:33.026Z,98490.48
2022-12-11T18:38:35.445Z,98500.11
2022-12-11T18:42:37.883Z,98505.88
2022-12-11T18:46:39.991Z,98513.77
2022-12-11T18:50:46.543Z,98519.00
2022-12-11T18:54:49.988Z,98515.40
2022-12-11T18:58:52.064Z,98523.05
2022-12-11T19:02:54.057Z,98521.88
2022-12-11T19:06:56.683Z,98519.63
2022-12-11T19:10:58.677Z,98511.69
2022-12-11T19:15:00.863Z,98516.64
2022-12-11T19:19:09.457Z,98519.51
2022-12-11T19:23:11.413Z,98519.25
2022-12-11T19:27:13.969Z,98517.89
2022-12-11T19:31:19.770Z,98527.30
2022-12-11T19:35:21.914Z,98535.36
2022-12-11T19:39:23.896Z,98540.70
2022-12-11T19:43:26.426Z,98539.14
2022-12-11T19:47:28.357Z,98536.83
2022-12-11T19:51:38.694Z,98529.09
2022-12-11T19:55:41.695Z,98525.43
2022-12-11T19:59:43.622Z,98519.06
2022-12-11T20:03:46.022Z,98525.30
2022-12-11T20:07:48.402Z,98531.05
2022-12-11T20:11:50.435Z,98528.45
2022-12-11T20:15:53.242Z,98525.31
2022-12-11T20:19:55.279Z,98538.19
2022-12-11T20:23:57.365Z,98535.90
2022-12-11T20:27:59.390Z,98532.77
2022-12-11T20:32:02.821Z,98538.88
2022-12-11T20:36:10.102Z,98543.04
2022-12-11T20:40:12.730Z,98545.41
2022-12-11T20:44:14.664Z,98546.89
2022-12-11T20:48:17.128Z,98541.43
2022-12-11T20:52:19.679Z,98538.86
2022-12-11T20:56:21.711Z,98541.70
2022-12-11T21:00:24.167Z,98541.06
2022-12-11T21:04:26.967Z,98533.50
2022-12-11T21:08:28.940Z,98534.33
2022-12-11T21:12:31.841Z,98536.67
2022-12-11T21:16:36.291Z,98539.05
2022-12-11T21:20:38.265Z,98540.45
2022-12-11T21:24:41.125Z,98546.15
2022-12-11T21:28:43.385Z,98550.73
2022-12-11T21:32:45.634Z,98549.45
2022-12-11T21:36:48.088Z,98547.48
2022-12-11T21:40:50.874Z,98537.29
2022-12-11T21:49:15.674Z,98537.23
2022-12-11T21:53:17.652Z,98522.21
2022-12-11T21:57:25.887Z,98521.88
2022-12-11T22:01:30.854Z,98530.56
2022-12-11T22:05:32.873Z,98539.84
2022-12-11T22:09:34.815Z,98540.78
2022-12-11T22:13:36.992Z,98552.42
2022-12-11T22:17:38.970Z,98559.66
2022-12-11T22:21:41.001Z,98560.30
2022-12-11T22:25:42.937Z,98557.30
2022-12-11T22:29:44.891Z,98559.02
2022-12-11T22:33:49.544Z,98553.41
2022-12-11T22:37:51.779Z,98554.48
2022-12-11T22:41:53.800Z,98552.42
2022-12-11T22:45:55.823Z,98552.84
2022-12-11T22:49:57.714Z,98544.07
2022-12-11T22:53:59.815Z,98544.75
2022-12-11T22:58:01.697Z,98547.92
2022-12-11T23:02:03.781Z,98537.27
2022-12-11T23:06:08.394Z,98523.19
2022-12-11T23:10:10.515Z,98525.19
2022-12-11T23:14:17.758Z,98529.32
2022-12-11T23:18:19.840Z,98531.17
2022-12-11T23:22:21.808Z,98535.15
2022-12-11T23:26:24.363Z,98535.73
2022-12-11T23:30:26.409Z,98535.11
2022-12-11T23:34:28.342Z,98539.63
2022-12-11T23:38:30.788Z,98539.61
2022-12-11T23:42:33.535Z,98537.80
2022-12-11T23:46:36.032Z,98547.06
2022-12-11T23:50:39.214Z,98546.14
2022-12-11T23:54:41.107Z,98539.94
2022-12-11T23:58:43.172Z,98539.09
